Time;durP1;ratioP1;P1;durP2;ratioP2;P2;SDS_P1;SDS_P2;PMS_P1;PMS_P2;Temp;Humidity;BMP_temperature;BMP_pressure;BME280_temperature;BME280_humidity;BME280_pressure;Samples;Min_cycle;Max_cycle;Signal;HPM_P1;HPM_P2
2023/12/01 00:06:51;;;;;;;12.97;7.77;;;1.50;99.90;;;;;;5011792;28;20460;-60
2023/12/01 00:10:06;;;;;;;19.73;8.00;;;1.50;99.90;;;;;;5016645;28;20440;-60
2023/12/01 00:13:22;;;;;;;16.33;8.33;;;1.50;99.90;;;;;;5014760;28;20422;-60
2023/12/01 00:16:37;;;;;;;16.00;8.10;;;1.50;99.90;;;;;;5011068;28;20426;-60
2023/12/01 00:19:53;;;;;;;19.20;9.03;;;1.50;99.90;;;;;;5012134;28;20426;-60
2023/12/01 00:23:08;;;;;;;24.10;9.50;;;1.50;99.90;;;;;;5011913;28;20434;-60
2023/12/01 00:26:25;;;;;;;23.40;8.90;;;1.50;99.90;;;;;;4998598;28;20461;-60
2023/12/01 00:29:39;;;;;;;16.77;10.10;;;1.60;99.90;;;;;;5012107;28;20422;-60
2023/12/01 00:32:09;;;;;;;13.27;7.67;;;1.50;99.90;;;;;;5010992;28;20422;-60
2023/12/01 00:34:34;;;;;;;20.03;9.40;;;1.50;99.90;;;;;;5024614;28;20432;-60
2023/12/01 00:37:00;;;;;;;17.10;8.07;;;1.50;99.90;;;;;;5025231;28;20438;-60
2023/12/01 00:39:26;;;;;;;16.80;8.40;;;1.50;99.90;;;;;;5024115;28;20602;-60
2023/12/01 00:41:51;;;;;;;17.33;9.07;;;1.50;99.90;;;;;;5014169;28;20190;-60
2023/12/01 00:44:17;;;;;;;18.83;10.37;;;1.50;99.90;;;;;;5024049;28;20828;-60
2023/12/01 00:46:42;;;;;;;16.07;9.20;;;1.50;99.90;;;;;;5012226;28;20270;-60
2023/12/01 00:49:08;;;;;;;19.53;9.13;;;1.50;99.90;;;;;;5024032;28;20243;-60
2023/12/01 00:51:33;;;;;;;16.60;9.00;;;1.60;99.90;;;;;;5017853;28;20191;-60
2023/12/01 00:53:59;;;;;;;21.87;10.30;;;1.60;99.90;;;;;;5019414;28;20274;-60
2023/12/01 00:56:24;;;;;;;16.43;9.33;;;1.60;99.90;;;;;;5015384;28;20663;-60
2023/12/01 00:58:50;;;;;;;20.90;9.80;;;1.50;99.90;;;;;;5019845;28;20696;-60
2023/12/01 01:01:17;;;;;;;24.50;10.40;;;1.60;99.90;;;;;;5024351;28;20227;-60
2023/12/01 01:03:43;;;;;;;27.40;11.73;;;1.60;99.90;;;;;;5011217;28;20632;-60
2023/12/01 01:06:08;;;;;;;18.23;10.67;;;1.50;99.90;;;;;;5021657;28;20429;-60
2023/12/01 01:08:34;;;;;;;22.40;10.63;;;1.50;99.90;;;;;;5025101;28;20424;-60
2023/12/01 01:10:59;;;;;;;20.37;10.67;;;1.40;99.90;;;;;;5016185;28;20194;-60
2023/12/01 01:13:27;;;;;;;20.03;10.43;;;1.40;99.90;;;;;;5015407;28;20183;-60
2023/12/01 01:15:53;;;;;;;19.87;10.13;;;1.30;99.90;;;;;;5015321;28;20192;-61
2023/12/01 01:18:20;;;;;;;20.57;10.27;;;1.30;99.90;;;;;;5015098;28;20430;-60
2023/12/01 01:20:46;;;;;;;15.97;9.37;;;1.30;99.90;;;;;;5014980;28;20183;-60
2023/12/01 01:23:11;;;;;;;19.90;10.57;;;1.40;99.90;;;;;;5023640;28;20456;-60
2023/12/01 01:25:37;;;;;;;22.07;11.20;;;1.40;99.90;;;;;;5019857;28;20209;-60
2023/12/01 01:28:02;;;;;;;19.43;9.63;;;1.30;99.90;;;;;;5031428;28;21066;-60
2023/12/01 01:30:28;;;;;;;21.67;9.03;;;1.30;99.90;;;;;;5014924;28;20179;-60
2023/12/01 01:32:53;;;;;;;31.80;10.13;;;1.30;99.90;;;;;;5014673;28;20278;-60
2023/12/01 01:35:19;;;;;;;20.87;9.83;;;1.30;99.90;;;;;;5027985;28;20265;-61
2023/12/01 01:37:44;;;;;;;24.37;10.27;;;1.20;99.90;;;;;;5014468;28;20187;-61
2023/12/01 01:40:12;;;;;;;19.60;10.07;;;1.20;99.90;;;;;;5014132;28;20237;-60
2023/12/01 01:42:37;;;;;;;23.47;10.77;;;1.20;99.90;;;;;;5014187;28;20663;-60
2023/12/01 01:45:04;;;;;;;18.47;10.17;;;1.10;99.90;;;;;;5014518;28;20461;-60
2023/12/01 01:47:30;;;;;;;17.77;10.60;;;1.20;99.90;;;;;;5014319;28;20284;-60
2023/12/01 01:49:55;;;;;;;22.67;10.67;;;1.20;99.90;;;;;;5014549;28;20910;-60
2023/12/01 01:52:22;;;;;;;18.17;9.30;;;1.20;99.90;;;;;;5014444;28;20425;-60
2023/12/01 01:54:48;;;;;;;24.20;10.27;;;1.10;99.90;;;;;;5014356;28;20269;-60
2023/12/01 01:57:13;;;;;;;17.20;9.60;;;1.10;99.90;;;;;;5013464;28;20528;-60
2023/12/01 01:59:39;;;;;;;23.73;10.27;;;1.10;99.90;;;;;;5013745;28;20190;-60
2023/12/01 02:02:05;;;;;;;19.57;10.23;;;1.10;99.90;;;;;;4995619;28;20230;-60
2023/12/01 02:04:31;;;;;;;23.73;11.50;;;1.10;99.90;;;;;;5014186;28;20325;-60
2023/12/01 02:06:56;;;;;;;20.63;10.97;;;1.10;99.90;;;;;;5013969;28;20529;-60
2023/12/01 02:09:22;;;;;;;19.63;9.70;;;1.10;99.90;;;;;;5013251;28;20668;-60
2023/12/01 02:11:48;;;;;;;18.67;10.13;;;1.00;99.90;;;;;;5013190;28;20183;-60
2023/12/01 02:14:14;;;;;;;27.83;11.60;;;1.00;99.90;;;;;;5013907;28;20194;-60
2023/12/01 02:16:45;;;;;;;25.97;10.23;;;1.00;99.90;;;;;;5013861;28;20183;-60
2023/12/01 02:19:12;;;;;;;22.70;10.03;;;1.00;99.90;;;;;;5012718;28;20236;-60
2023/12/01 02:21:42;;;;;;;19.67;10.90;;;1.00;99.90;;;;;;5013739;28;20426;-60
2023/12/01 02:24:08;;;;;;;20.50;10.77;;;1.00;99.90;;;;;;5013240;28;20454;-60
2023/12/01 02:26:34;;;;;;;16.90;9.50;;;1.10;99.90;;;;;;5013006;28;20528;-60
2023/12/01 02:29:03;;;;;;;22.30;11.20;;;1.00;99.90;;;;;;5013717;28;20781;-60
2023/12/01 02:31:28;;;;;;;24.43;12.67;;;1.10;99.90;;;;;;5013257;28;20262;-60
2023/12/01 02:33:54;;;;;;;24.53;10.30;;;1.10;99.90;;;;;;5013515;28;20557;-61
2023/12/01 02:36:19;;;;;;;22.13;11.43;;;1.10;99.90;;;;;;5013167;28;20190;-60
2023/12/01 02:38:45;;;;;;;18.73;10.37;;;1.10;99.90;;;;;;5013628;28;20694;-60
2023/12/01 02:41:10;;;;;;;28.23;11.00;;;1.10;99.90;;;;;;5012780;28;20258;-60
2023/12/01 02:43:36;;;;;;;23.20;10.47;;;1.00;99.90;;;;;;5013290;28;20175;-60
2023/12/01 02:46:02;;;;;;;18.13;10.77;;;1.00;99.90;;;;;;5013383;28;20214;-60
2023/12/01 02:48:27;;;;;;;23.10;11.60;;;0.90;99.90;;;;;;5013185;28;20517;-60
2023/12/01 02:50:53;;;;;;;26.83;11.23;;;0.90;99.90;;;;;;5013147;28;20270;-60
2023/12/01 02:53:18;;;;;;;23.17;11.60;;;0.80;99.90;;;;;;5013298;28;20644;-60
2023/12/01 02:55:45;;;;;;;28.60;12.97;;;0.80;99.90;;;;;;5013156;28;20183;-60
2023/12/01 02:58:11;;;;;;;22.70;10.27;;;0.80;99.90;;;;;;5012814;28;20396;-60
2023/12/01 03:00:37;;;;;;;24.93;12.17;;;0.80;99.90;;;;;;5012852;28;20460;-60
2023/12/01 03:03:02;;;;;;;32.60;12.70;;;0.90;99.90;;;;;;5012675;28;20187;-60
2023/12/01 03:05:28;;;;;;;24.27;11.87;;;0.90;99.90;;;;;;5012826;28;20211;-60
2023/12/01 03:07:53;;;;;;;25.43;10.90;;;0.90;99.90;;;;;;5012919;28;20182;-60
2023/12/01 03:10:19;;;;;;;24.83;12.50;;;0.90;99.90;;;;;;5013020;28;20266;-60
2023/12/01 03:12:45;;;;;;;20.47;11.13;;;0.90;99.90;;;;;;5011693;28;20540;-60
2023/12/01 03:15:13;;;;;;;22.57;11.97;;;1.00;99.90;;;;;;5012803;28;20182;-60
2023/12/01 03:17:39;;;;;;;20.27;10.23;;;0.90;99.90;;;;;;5012450;28;20906;-60
2023/12/01 03:20:14;;;;;;;20.73;10.30;;;0.90;99.90;;;;;;5012464;28;20784;-60
2023/12/01 03:22:42;;;;;;;23.43;12.33;;;0.80;99.90;;;;;;5024392;28;20520;-60
2023/12/01 03:25:11;;;;;;;27.07;11.50;;;0.80;99.90;;;;;;5028110;28;20925;-60
2023/12/01 03:27:44;;;;;;;23.03;11.00;;;0.80;99.90;;;;;;5031509;28;20470;-60
2023/12/01 03:30:15;;;;;;;20.27;11.13;;;0.80;99.90;;;;;;5025657;28;20917;-60
2023/12/01 03:32:48;;;;;;;18.63;10.97;;;0.80;99.90;;;;;;5031932;28;20449;-60
2023/12/01 03:35:18;;;;;;;20.70;11.33;;;0.80;99.90;;;;;;5013696;28;20501;-60
2023/12/01 03:37:44;;;;;;;21.20;10.63;;;0.90;99.90;;;;;;5024905;28;20433;-60
2023/12/01 03:40:13;;;;;;;20.27;11.70;;;0.90;99.90;;;;;;5013222;28;20426;-60
2023/12/01 03:42:46;;;;;;;22.93;10.37;;;0.90;99.90;;;;;;5011601;28;20437;-60
2023/12/01 03:45:13;;;;;;;26.70;11.60;;;0.90;99.90;;;;;;5011943;28;20617;-60
2023/12/01 03:47:40;;;;;;;23.97;11.43;;;0.80;99.90;;;;;;5022028;28;20422;-60
2023/12/01 03:50:11;;;;;;;21.30;11.03;;;0.80;99.90;;;;;;5012343;28;20425;-60
2023/12/01 03:52:37;;;;;;;23.53;11.40;;;0.80;99.90;;;;;;5026561;28;20443;-60
2023/12/01 03:55:04;;;;;;;23.93;11.10;;;0.80;99.90;;;;;;5024755;28;20741;-60
2023/12/01 03:57:29;;;;;;;19.73;10.27;;;0.80;99.90;;;;;;5024697;28;20430;-60
2023/12/01 03:59:55;;;;;;;17.80;10.27;;;0.80;99.90;;;;;;5011972;28;20424;-58
2023/12/01 04:02:21;;;;;;;18.37;9.53;;;0.80;99.90;;;;;;5024831;28;20636;-58
2023/12/01 04:04:47;;;;;;;23.77;11.13;;;0.80;99.90;;;;;;5019291;28;20202;-60
2023/12/01 04:07:13;;;;;;;23.87;10.60;;;0.80;99.90;;;;;;5014755;28;20421;-60
2023/12/01 04:09:39;;;;;;;22.80;11.47;;;0.80;99.90;;;;;;5019195;28;20440;-60
2023/12/01 04:12:04;;;;;;;20.13;10.43;;;0.70;99.90;;;;;;5020808;28;20549;-61
2023/12/01 04:14:30;;;;;;;20.73;11.10;;;0.80;99.90;;;;;;5011590;28;20193;-60
2023/12/01 04:16:56;;;;;;;17.77;9.30;;;0.80;99.90;;;;;;5011684;28;20275;-60
2023/12/01 04:19:22;;;;;;;20.27;9.30;;;0.80;99.90;;;;;;5012187;28;20201;-60
2023/12/01 04:21:47;;;;;;;17.30;10.00;;;0.80;99.90;;;;;;5012492;28;21103;-60
2023/12/01 04:24:13;;;;;;;20.60;10.40;;;0.80;99.90;;;;;;5024376;28;20210;-60
2023/12/01 04:26:38;;;;;;;16.70;10.10;;;0.70;99.90;;;;;;5010946;28;20186;-60
2023/12/01 04:29:04;;;;;;;23.13;11.10;;;0.70;99.90;;;;;;5018887;28;20186;-60
2023/12/01 04:31:29;;;;;;;18.43;9.93;;;0.70;99.90;;;;;;5031457;28;20279;-60
2023/12/01 04:33:55;;;;;;;15.53;8.63;;;0.70;99.90;;;;;;5031116;28;20256;-60
2023/12/01 04:36:20;;;;;;;14.17;9.53;;;0.70;99.90;;;;;;5017975;28;20183;-60
2023/12/01 04:38:46;;;;;;;19.83;9.50;;;0.70;99.90;;;;;;5024611;28;20222;-60
2023/12/01 04:41:11;;;;;;;23.20;9.83;;;0.70;99.90;;;;;;5024052;28;20718;-60
2023/12/01 04:43:39;;;;;;;18.77;8.90;;;0.70;99.90;;;;;;5014638;28;20191;-60
2023/12/01 04:46:05;;;;;;;22.63;10.43;;;0.70;99.90;;;;;;5028858;28;20605;-60
2023/12/01 04:48:31;;;;;;;20.53;9.20;;;0.60;99.90;;;;;;5022349;28;20471;-60
2023/12/01 04:50:56;;;;;;;24.93;9.10;;;0.70;99.90;;;;;;5035331;28;20897;-60
2023/12/01 04:53:22;;;;;;;19.30;9.93;;;0.70;99.90;;;;;;5022249;28;20827;-60
2023/12/01 04:55:47;;;;;;;21.33;10.33;;;0.70;99.90;;;;;;5021855;28;20270;-58
2023/12/01 04:58:13;;;;;;;18.70;10.67;;;0.70;99.90;;;;;;5030767;28;20214;-58
2023/12/01 05:00:39;;;;;;;16.57;9.03;;;0.80;99.90;;;;;;5015034;28;20717;-58
2023/12/01 05:03:06;;;;;;;21.20;9.40;;;0.80;99.90;;;;;;5015156;28;20198;-58
2023/12/01 05:05:41;;;;;;;14.30;8.37;;;0.80;99.90;;;;;;5015025;28;20215;-58
2023/12/01 05:08:10;;;;;;;25.80;9.97;;;0.80;99.90;;;;;;5011031;28;20792;-58
2023/12/01 05:10:37;;;;;;;14.73;9.60;;;0.80;99.90;;;;;;5033035;28;20502;-58
2023/12/01 05:13:04;;;;;;;15.07;8.23;;;0.90;99.90;;;;;;5014263;28;20480;-58
2023/12/01 05:15:35;;;;;;;14.93;8.57;;;0.90;99.90;;;;;;5014955;28;20918;-58
2023/12/01 05:18:04;;;;;;;17.50;9.77;;;0.90;99.90;;;;;;5014718;28;20513;-58
2023/12/01 05:20:31;;;;;;;13.40;8.80;;;0.90;99.90;;;;;;5014906;28;20433;-58
2023/12/01 05:23:02;;;;;;;14.20;8.67;;;0.90;99.90;;;;;;5014958;28;20422;-58
2023/12/01 05:25:32;;;;;;;20.80;9.10;;;0.90;99.90;;;;;;5028253;28;20460;-58
2023/12/01 05:28:00;;;;;;;18.80;10.37;;;0.90;99.90;;;;;;5014596;28;20426;-58
2023/12/01 05:30:27;;;;;;;15.60;8.53;;;0.90;99.90;;;;;;5014589;28;20418;-58
2023/12/01 05:32:53;;;;;;;16.50;8.43;;;0.90;99.90;;;;;;5014609;28;20460;-58
2023/12/01 05:35:19;;;;;;;16.30;8.83;;;0.90;99.90;;;;;;5014388;28;20440;-58
2023/12/01 05:37:50;;;;;;;17.53;9.20;;;0.90;99.90;;;;;;5026797;28;20449;-58
2023/12/01 05:40:20;;;;;;;20.30;9.53;;;0.80;99.90;;;;;;5014357;28;20870;-58
2023/12/01 05:42:48;;;;;;;17.27;8.20;;;0.80;99.90;;;;;;5013525;28;20426;-59
2023/12/01 05:45:15;;;;;;;19.50;9.70;;;0.80;99.90;;;;;;5014364;28;20494;-60
2023/12/01 05:47:45;;;;;;;14.77;8.50;;;0.80;99.90;;;;;;5014145;28;20446;-60
2023/12/01 05:50:17;;;;;;;19.90;9.97;;;0.80;99.90;;;;;;5014314;28;20449;-60
2023/12/01 05:52:45;;;;;;;15.63;8.87;;;0.80;99.90;;;;;;5014318;28;20418;-60
2023/12/01 05:55:15;;;;;;;15.50;9.00;;;0.80;99.90;;;;;;5014498;28;20438;-60
2023/12/01 05:57:46;;;;;;;14.17;8.80;;;0.90;99.90;;;;;;5013671;28;20432;-60
2023/12/01 06:00:20;;;;;;;21.97;10.27;;;0.90;99.90;;;;;;5004380;28;20418;-60
2023/12/01 06:02:46;;;;;;;13.87;7.77;;;0.90;99.90;;;;;;5013625;28;20433;-60
2023/12/01 06:05:13;;;;;;;15.33;7.53;;;0.90;99.90;;;;;;5013941;28;21031;-60
2023/12/01 06:07:44;;;;;;;13.23;7.17;;;0.90;99.90;;;;;;5013822;28;20898;-60
2023/12/01 06:10:11;;;;;;;16.43;8.30;;;0.90;99.90;;;;;;5013662;28;20810;-60
2023/12/01 06:12:37;;;;;;;14.60;7.13;;;0.90;99.90;;;;;;5012988;28;20422;-60
2023/12/01 06:15:09;;;;;;;12.73;7.03;;;0.90;99.90;;;;;;5013715;28;20476;-60
2023/12/01 06:17:35;;;;;;;13.83;7.90;;;1.00;99.90;;;;;;5013689;28;20418;-60
2023/12/01 06:20:01;;;;;;;14.70;8.17;;;1.00;99.90;;;;;;5013992;28;20894;-60
2023/12/01 06:22:26;;;;;;;17.90;9.70;;;1.00;99.90;;;;;;5013607;28;20195;-60
2023/12/01 06:24:52;;;;;;;14.63;8.77;;;0.90;99.90;;;;;;5013556;28;20218;-60
2023/12/01 06:27:17;;;;;;;20.27;9.50;;;0.90;99.90;;;;;;5000068;28;20526;-60
2023/12/01 06:29:44;;;;;;;17.83;8.93;;;0.90;99.90;;;;;;5012530;28;20206;-60
2023/12/01 06:32:10;;;;;;;15.90;8.30;;;0.80;99.90;;;;;;5013103;28;20213;-60
2023/12/01 06:34:35;;;;;;;13.40;7.77;;;0.70;99.90;;;;;;5013923;28;20903;-60
2023/12/01 06:37:01;;;;;;;13.63;7.70;;;0.80;99.90;;;;;;5013124;28;20265;-60
2023/12/01 06:39:27;;;;;;;18.37;8.60;;;0.80;99.90;;;;;;5013460;28;20190;-60
2023/12/01 06:41:53;;;;;;;16.40;7.50;;;0.80;99.90;;;;;;5012369;28;20252;-58
2023/12/01 06:44:19;;;;;;;11.13;6.50;;;0.80;99.90;;;;;;5013385;28;20946;-59
2023/12/01 06:46:45;;;;;;;14.10;7.57;;;0.80;99.90;;;;;;5013488;28;20179;-60
2023/12/01 06:49:10;;;;;;;14.07;8.37;;;0.80;99.90;;;;;;5013342;28;20421;-60
2023/12/01 06:51:36;;;;;;;17.50;7.90;;;0.80;99.90;;;;;;5012786;28;20190;-60
2023/12/01 06:54:01;;;;;;;11.50;6.17;;;0.80;99.90;;;;;;5012790;28;20554;-60
2023/12/01 06:56:27;;;;;;;10.33;6.60;;;0.80;99.90;;;;;;5012148;28;20625;-60
2023/12/01 06:58:52;;;;;;;18.20;7.00;;;0.90;99.90;;;;;;5013313;28;20194;-60
2023/12/01 07:01:19;;;;;;;14.63;6.70;;;0.90;99.90;;;;;;5019063;28;20258;-60
2023/12/01 07:03:45;;;;;;;13.57;7.07;;;0.80;99.90;;;;;;5019817;28;20179;-60
2023/12/01 07:06:11;;;;;;;11.33;6.40;;;0.80;99.90;;;;;;5000249;28;20458;-60
2023/12/01 07:08:37;;;;;;;11.20;5.97;;;0.90;99.90;;;;;;5012539;28;20469;-60
2023/12/01 07:11:03;;;;;;;10.67;6.30;;;0.80;99.90;;;;;;5012402;28;20960;-60
2023/12/01 07:13:29;;;;;;;9.80;6.70;;;0.90;99.90;;;;;;5012223;28;20595;-60
2023/12/01 07:15:55;;;;;;;12.80;6.57;;;0.80;99.90;;;;;;5012739;28;20433;-60
2023/12/01 07:18:21;;;;;;;11.90;5.87;;;0.90;99.90;;;;;;5012466;28;20791;-60
2023/12/01 07:20:46;;;;;;;8.90;6.20;;;0.90;99.90;;;;;;5012620;28;20449;-60
2023/12/01 07:23:12;;;;;;;12.57;6.40;;;0.90;99.90;;;;;;5012038;28;20286;-60
2023/12/01 07:25:37;;;;;;;9.97;6.07;;;0.90;99.90;;;;;;5018584;28;20210;-60
2023/12/01 07:28:05;;;;;;;11.37;5.60;;;0.90;99.90;;;;;;5018884;28;20183;-60
2023/12/01 07:30:31;;;;;;;12.23;6.43;;;0.80;99.90;;;;;;5012612;28;20179;-60
2023/12/01 07:32:59;;;;;;;11.03;6.17;;;0.70;99.90;;;;;;5024857;28;20996;-60
2023/12/01 07:35:25;;;;;;;10.83;6.03;;;0.70;99.90;;;;;;5011743;28;20183;-60
2023/12/01 07:37:52;;;;;;;12.73;6.00;;;0.70;99.90;;;;;;5023063;28;21082;-60
2023/12/01 07:40:22;;;;;;;10.70;5.63;;;0.70;99.90;;;;;;5013056;28;20244;-60
2023/12/01 07:42:49;;;;;;;10.10;6.17;;;0.70;99.90;;;;;;5013579;28;20478;-60
2023/12/01 07:45:17;;;;;;;15.83;7.90;;;0.70;99.90;;;;;;5012499;28;20484;-60
2023/12/01 07:48:09;;;;;;;13.67;7.03;;;0.70;99.90;;;;;;5023142;28;21139;-60
2023/12/01 07:50:35;;;;;;;15.80;6.90;;;0.70;99.90;;;;;;5020898;28;20933;-60
2023/12/01 07:53:04;;;;;;;12.80;6.30;;;0.80;99.90;;;;;;5012028;28;20525;-60
2023/12/01 07:55:29;;;;;;;12.53;7.23;;;0.80;99.90;;;;;;5012226;28;20218;-60
2023/12/01 07:57:55;;;;;;;12.57;5.93;;;0.80;99.90;;;;;;5020126;28;20949;-60
2023/12/01 08:00:21;;;;;;;10.70;5.90;;;0.70;99.90;;;;;;5003408;28;20805;-60
2023/12/01 08:02:48;;;;;;;15.10;6.10;;;0.70;99.90;;;;;;5021506;28;20182;-60
2023/12/01 08:05:13;;;;;;;10.43;6.47;;;0.70;99.90;;;;;;5025196;28;20469;-60
2023/12/01 08:07:46;;;;;;;10.50;6.63;;;0.70;99.90;;;;;;5019912;28;20499;-60
2023/12/01 08:10:17;;;;;;;11.63;6.47;;;0.70;99.90;;;;;;5025981;28;20188;-60
2023/12/01 08:12:44;;;;;;;12.00;6.53;;;0.70;99.90;;;;;;5010564;28;20422;-60
2023/12/01 08:15:10;;;;;;;13.00;7.40;;;0.80;99.90;;;;;;5025422;28;20413;-60
2023/12/01 08:17:37;;;;;;;12.80;7.00;;;0.70;99.90;;;;;;5018163;28;20437;-60
2023/12/01 08:20:05;;;;;;;11.03;6.90;;;0.80;99.90;;;;;;5021687;28;20193;-59
2023/12/01 08:22:31;;;;;;;10.40;6.13;;;0.80;99.90;;;;;;5020836;28;20563;-59
2023/12/01 08:24:56;;;;;;;15.47;8.30;;;0.90;99.90;;;;;;4998922;28;20501;-60
2023/12/01 08:27:22;;;;;;;14.40;7.50;;;0.80;99.90;;;;;;5021337;28;20507;-60
2023/12/01 08:29:47;;;;;;;17.27;7.20;;;0.90;99.90;;;;;;5013144;28;20182;-60
2023/12/01 08:32:13;;;;;;;11.23;6.43;;;0.80;99.90;;;;;;5011005;28;20182;-63
2023/12/01 08:34:38;;;;;;;10.20;6.47;;;0.80;99.90;;;;;;5019892;28;20195;-60
2023/12/01 08:37:04;;;;;;;16.37;6.83;;;0.80;99.90;;;;;;5010603;28;20538;-60
2023/12/01 08:39:30;;;;;;;12.97;7.80;;;0.80;99.90;;;;;;5025925;28;20273;-60
2023/12/01 08:41:56;;;;;;;10.30;6.40;;;0.80;99.90;;;;;;5017157;28;20182;-60
2023/12/01 08:44:22;;;;;;;14.43;6.50;;;0.80;99.90;;;;;;5010776;28;20552;-60
2023/12/01 08:46:47;;;;;;;12.50;6.13;;;0.80;99.90;;;;;;5012446;28;20501;-61
2023/12/01 08:49:13;;;;;;;15.03;7.93;;;0.80;99.90;;;;;;5005358;28;20203;-62
2023/12/01 08:51:38;;;;;;;13.33;6.53;;;0.90;99.90;;;;;;5017061;28;20183;-65
2023/12/01 08:54:04;;;;;;;13.43;6.83;;;1.00;99.90;;;;;;5015969;28;20221;-62
2023/12/01 08:56:35;;;;;;;13.23;6.40;;;0.90;99.90;;;;;;5019080;28;20578;-63
2023/12/01 08:59:01;;;;;;;12.83;6.80;;;0.90;99.90;;;;;;5020241;28;20644;-63
2023/12/01 09:01:27;;;;;;;12.80;6.80;;;0.90;99.90;;;;;;5021300;28;20465;-64
2023/12/01 09:03:52;;;;;;;12.40;6.60;;;1.00;99.90;;;;;;5023174;28;20178;-63
2023/12/01 09:06:18;;;;;;;12.33;7.43;;;1.00;99.90;;;;;;5016251;28;20214;-63
2023/12/01 09:08:43;;;;;;;12.67;7.33;;;1.00;99.90;;;;;;5019914;28;20520;-63
2023/12/01 09:11:09;;;;;;;12.80;7.30;;;1.10;99.90;;;;;;5029370;28;20186;-63
2023/12/01 09:13:36;;;;;;;10.50;6.80;;;1.00;99.90;;;;;;5019889;28;20175;-64
2023/12/01 09:16:02;;;;;;;13.60;7.50;;;1.00;99.90;;;;;;5010694;28;20183;-63
2023/12/01 09:18:29;;;;;;;19.97;8.70;;;1.10;99.90;;;;;;5019018;28;20433;-63
2023/12/01 09:20:55;;;;;;;17.43;8.50;;;1.10;99.90;;;;;;5016454;28;20175;-63
2023/12/01 09:23:21;;;;;;;14.33;6.00;;;1.20;99.90;;;;;;5017904;28;20410;-63
2023/12/01 09:25:46;;;;;;;11.80;6.40;;;1.30;99.90;;;;;;5011236;28;20461;-63
2023/12/01 09:28:12;;;;;;;10.00;6.00;;;1.40;99.90;;;;;;5021397;28;20623;-63
2023/12/01 09:30:38;;;;;;;14.10;7.07;;;1.40;99.90;;;;;;5022979;28;20253;-63
2023/12/01 09:33:04;;;;;;;17.20;7.03;;;1.50;99.90;;;;;;5034340;28;20492;-63
2023/12/01 09:35:29;;;;;;;13.07;5.37;;;1.40;99.90;;;;;;5027090;28;20183;-63
2023/12/01 09:37:55;;;;;;;9.17;5.67;;;1.40;99.90;;;;;;5020794;28;20320;-63
2023/12/01 09:40:21;;;;;;;11.60;6.40;;;1.50;99.90;;;;;;5021503;28;20197;-63
2023/12/01 09:42:49;;;;;;;9.80;5.83;;;1.50;99.90;;;;;;5019607;28;20171;-63
2023/12/01 09:45:22;;;;;;;8.67;5.00;;;1.60;99.90;;;;;;5019978;28;20462;-64
2023/12/01 09:47:57;;;;;;;10.03;5.57;;;1.60;99.90;;;;;;5024403;28;20770;-63
2023/12/01 09:50:22;;;;;;;7.50;4.73;;;1.50;99.90;;;;;;5026774;28;20468;-63
2023/12/01 09:52:48;;;;;;;12.07;5.33;;;1.50;99.90;;;;;;5022283;28;20418;-63
2023/12/01 09:55:14;;;;;;;7.27;4.70;;;1.50;99.90;;;;;;5020772;28;20175;-63
2023/12/01 09:57:41;;;;;;;8.23;5.30;;;1.60;99.90;;;;;;5021751;28;20183;-63
2023/12/01 10:00:11;;;;;;;12.50;6.10;;;1.50;99.90;;;;;;5014012;28;20191;-59
2023/12/01 10:02:40;;;;;;;11.57;6.20;;;1.50;99.90;;;;;;5012798;28;21026;-59
2023/12/01 10:05:06;;;;;;;9.23;5.17;;;1.60;99.90;;;;;;5013616;28;20484;-59
2023/12/01 10:07:35;;;;;;;11.17;5.67;;;1.70;99.90;;;;;;5013500;28;20410;-59
2023/12/01 10:10:19;;;;;;;12.93;6.33;;;1.80;99.90;;;;;;5025269;28;20453;-63
2023/12/01 10:12:56;;;;;;;8.90;5.10;;;1.90;99.90;;;;;;5017664;28;20426;-63
2023/12/01 10:15:24;;;;;;;10.80;4.73;;;1.90;99.90;;;;;;5017006;28;20500;-63
2023/12/01 10:17:54;;;;;;;11.00;5.67;;;1.90;99.90;;;;;;5025209;28;20422;-63
2023/12/01 10:20:21;;;;;;;5.57;4.10;;;1.90;99.90;;;;;;5017905;28;20421;-63
2023/12/01 10:22:49;;;;;;;11.27;5.83;;;1.70;99.90;;;;;;5014428;28;20505;-63
2023/12/01 10:25:14;;;;;;;7.37;4.63;;;1.80;99.90;;;;;;5016743;28;20461;-63
2023/12/01 10:27:40;;;;;;;9.53;6.00;;;1.80;99.90;;;;;;5015756;28;20432;-64
2023/12/01 10:30:13;;;;;;;8.87;4.87;;;1.70;99.90;;;;;;5019797;28;20250;-63
2023/12/01 10:32:41;;;;;;;11.03;4.77;;;1.70;99.90;;;;;;5018267;28;20182;-63
2023/12/01 10:35:06;;;;;;;13.10;4.73;;;1.60;99.90;;;;;;5017869;28;20421;-63
2023/12/01 10:37:33;;;;;;;9.87;5.17;;;1.60;99.90;;;;;;5030387;28;20439;-63
2023/12/01 10:40:05;;;;;;;10.63;6.07;;;1.70;99.90;;;;;;5027416;28;20650;-63
2023/12/01 10:42:32;;;;;;;11.80;5.40;;;1.70;99.90;;;;;;5027013;28;20428;-64
2023/12/01 10:45:04;;;;;;;11.10;6.60;;;1.60;99.90;;;;;;5025707;28;20464;-65
2023/12/01 10:47:32;;;;;;;8.43;5.30;;;1.50;99.90;;;;;;5018245;28;20556;-65
2023/12/01 10:49:58;;;;;;;11.40;5.90;;;1.50;99.90;;;;;;5017700;28;20414;-65
2023/12/01 10:52:25;;;;;;;10.97;5.50;;;1.60;99.90;;;;;;5016392;28;20807;-63
2023/12/01 10:54:51;;;;;;;9.30;4.80;;;1.50;99.90;;;;;;5030806;28;20508;-63
2023/12/01 10:57:35;;;;;;;9.73;4.70;;;1.60;99.90;;;;;;5018239;28;20441;-63
2023/12/01 11:00:09;;;;;;;10.00;5.87;;;1.50;99.90;;;;;;5010584;28;20778;-62
2023/12/01 11:02:38;;;;;;;12.33;6.13;;;1.50;99.90;;;;;;5019026;28;20497;-63
2023/12/01 11:05:07;;;;;;;7.30;4.60;;;1.50;99.90;;;;;;5003834;28;20454;-62
2023/12/01 11:07:57;;;;;;;8.07;4.70;;;1.60;99.90;;;;;;5010928;28;20406;-63
2023/12/01 11:10:35;;;;;;;7.90;4.07;;;1.70;99.90;;;;;;5007998;28;20414;-63
2023/12/01 11:13:25;;;;;;;9.20;5.43;;;1.70;99.90;;;;;;5010460;28;20419;-63
2023/12/01 11:15:54;;;;;;;20.80;5.70;;;1.70;99.90;;;;;;5013196;28;20433;-63
2023/12/01 11:18:20;;;;;;;12.17;6.07;;;1.80;99.90;;;;;;5023803;28;20421;-63
2023/12/01 11:20:47;;;;;;;7.80;4.60;;;1.80;99.90;;;;;;5013534;28;20422;-62
2023/12/01 11:23:13;;;;;;;7.83;4.77;;;1.90;99.90;;;;;;5010302;28;20456;-63
2023/12/01 11:25:49;;;;;;;10.90;5.73;;;1.90;99.90;;;;;;5017303;28;20500;-63
2023/12/01 11:28:23;;;;;;;7.67;3.87;;;1.80;99.90;;;;;;5013847;28;20274;-63
2023/12/01 11:31:08;;;;;;;8.60;5.00;;;1.70;99.90;;;;;;5027074;28;20457;-63
2023/12/01 11:33:38;;;;;;;8.43;5.60;;;1.70;99.90;;;;;;5016452;28;20417;-63
2023/12/01 11:36:47;;;;;;;8.93;5.43;;;1.70;99.90;;;;;;5021452;28;21134;-63
2023/12/01 11:41:44;;;;;;;12.10;6.60;;;1.60;99.90;;;;;;5023954;28;20945;-63
2023/12/01 11:44:10;;;;;;;9.97;5.47;;;1.70;99.90;;;;;;5010156;28;20472;-63
2023/12/01 11:46:39;;;;;;;9.20;4.80;;;1.60;99.90;;;;;;5012421;28;20469;-63
2023/12/01 11:49:09;;;;;;;10.17;4.90;;;1.70;99.90;;;;;;5016696;28;20467;-63
2023/12/01 11:51:34;;;;;;;10.90;5.63;;;1.70;99.90;;;;;;5008009;28;20828;-63
2023/12/01 11:54:01;;;;;;;10.60;4.70;;;1.70;99.90;;;;;;5020850;28;20457;-63
2023/12/01 11:56:34;;;;;;;10.57;4.43;;;1.70;99.90;;;;;;5015217;28;20547;-63
2023/12/01 11:59:00;;;;;;;11.53;5.63;;;1.60;99.90;;;;;;5022479;28;21157;-63
2023/12/01 12:01:25;;;;;;;9.43;4.60;;;1.60;99.90;;;;;;5024562;28;20556;-63
2023/12/01 12:03:56;;;;;;;9.17;4.00;;;1.60;99.90;;;;;;5012085;28;20509;-62
2023/12/01 12:06:23;;;;;;;11.70;5.93;;;1.60;99.90;;;;;;5010489;28;20238;-59
2023/12/01 12:08:50;;;;;;;28.03;7.03;;;1.60;99.90;;;;;;5011345;28;20414;-59
2023/12/01 12:11:17;;;;;;;12.13;5.80;;;1.70;99.90;;;;;;5010696;28;20442;-59
2023/12/01 12:13:43;;;;;;;11.30;6.00;;;1.70;99.90;;;;;;5011461;28;20421;-59
2023/12/01 12:16:10;;;;;;;10.93;6.73;;;1.70;99.90;;;;;;5011800;28;20430;-62
2023/12/01 12:18:35;;;;;;;13.23;6.60;;;1.60;99.90;;;;;;5014491;28;20788;-63
2023/12/01 12:21:05;;;;;;;10.90;5.53;;;1.60;99.90;;;;;;5019429;28;20498;-62
2023/12/01 12:23:31;;;;;;;11.23;6.20;;;1.60;99.90;;;;;;5018708;28;20197;-62
2023/12/01 12:26:20;;;;;;;11.73;6.70;;;1.50;99.90;;;;;;5020168;28;20475;-62
2023/12/01 12:28:52;;;;;;;23.50;8.67;;;1.40;99.90;;;;;;5016310;28;20449;-62
2023/12/01 12:31:18;;;;;;;13.57;7.00;;;1.40;99.90;;;;;;5018517;28;20422;-60
2023/12/01 12:33:44;;;;;;;17.17;6.57;;;1.40;99.90;;;;;;5017848;28;20428;-62
2023/12/01 12:36:12;;;;;;;10.63;5.97;;;1.50;99.90;;;;;;5030074;28;20475;-62
2023/12/01 12:38:38;;;;;;;15.90;6.50;;;1.50;99.90;;;;;;5027855;28;20780;-62
2023/12/01 12:41:19;;;;;;;15.27;7.23;;;1.50;99.90;;;;;;5027223;28;20426;-62
2023/12/01 12:43:58;;;;;;;13.63;6.50;;;1.40;99.90;;;;;;5023986;28;20186;-62
2023/12/01 12:46:24;;;;;;;12.93;6.80;;;1.30;99.90;;;;;;5011819;28;20457;-62
2023/12/01 12:48:55;;;;;;;13.63;6.70;;;1.30;99.90;;;;;;5026792;28;20421;-62
2023/12/01 12:51:24;;;;;;;15.27;7.70;;;1.30;99.90;;;;;;5026868;28;21048;-62
2023/12/01 12:53:50;;;;;;;20.67;7.70;;;1.30;99.90;;;;;;5024285;28;20471;-62
2023/12/01 12:56:17;;;;;;;14.27;7.10;;;1.30;99.90;;;;;;5017611;28;20532;-62
2023/12/01 12:58:44;;;;;;;15.40;8.00;;;1.30;99.90;;;;;;5020644;28;20432;-62
2023/12/01 13:01:10;;;;;;;19.57;9.23;;;1.30;99.90;;;;;;5018059;28;20462;-62